sensor_id;sensor_type;location;lat;lon;timestamp;P1;durP1;ratioP1;P2;durP2;ratioP2
19004;SDS011;9635;52.078;8.648;2024-01-30T00:02:11;26.23;;;15.68;;
19004;SDS011;9635;52.078;8.648;2024-01-30T00:07:15;26.30;;;16.58;;
19004;SDS011;9635;52.078;8.648;2024-01-30T00:12:19;26.98;;;16.42;;
19004;SDS011;9635;52.078;8.648;2024-01-30T00:17:22;26.90;;;15.95;;
19004;SDS011;9635;52.078;8.648;2024-01-30T00:22:28;22.10;;;15.40;;
19004;SDS011;9635;52.078;8.648;2024-01-30T00:27:31;31.33;;;16.90;;
19004;SDS011;9635;52.078;8.648;2024-01-30T00:32:34;27.90;;;16.38;;
19004;SDS011;9635;52.078;8.648;2024-01-30T00:37:39;28.52;;;16.23;;
19004;SDS011;9635;52.078;8.648;2024-01-30T00:42:42;23.15;;;16.67;;
19004;SDS011;9635;52.078;8.648;2024-01-30T00:47:45;23.10;;;15.95;;
19004;SDS011;9635;52.078;8.648;2024-01-30T00:52:49;28.23;;;16.20;;
19004;SDS011;9635;52.078;8.648;2024-01-30T00:57:52;26.52;;;17.33;;
19004;SDS011;9635;52.078;8.648;2024-01-30T01:02:56;25.85;;;17.10;;
19004;SDS011;9635;52.078;8.648;2024-01-30T01:08:00;27.73;;;18.23;;
19004;SDS011;9635;52.078;8.648;2024-01-30T01:13:03;30.60;;;18.48;;
19004;SDS011;9635;52.078;8.648;2024-01-30T01:18:06;27.55;;;17.63;;
19004;SDS011;9635;52.078;8.648;2024-01-30T01:23:11;28.70;;;17.05;;
19004;SDS011;9635;52.078;8.648;2024-01-30T01:28:14;32.67;;;18.20;;
19004;SDS011;9635;52.078;8.648;2024-01-30T01:33:17;27.73;;;18.23;;
19004;SDS011;9635;52.078;8.648;2024-01-30T01:38:21;30.15;;;17.40;;
19004;SDS011;9635;52.078;8.648;2024-01-30T01:43:24;27.90;;;17.67;;
19004;SDS011;9635;52.078;8.648;2024-01-30T01:48:27;29.65;;;17.70;;
19004;SDS011;9635;52.078;8.648;2024-01-30T01:53:32;28.92;;;17.02;;
19004;SDS011;9635;52.078;8.648;2024-01-30T01:58:35;27.27;;;17.52;;
19004;SDS011;9635;52.078;8.648;2024-01-30T02:03:39;29.02;;;16.63;;
19004;SDS011;9635;52.078;8.648;2024-01-30T02:08:45;29.70;;;17.95;;
19004;SDS011;9635;52.078;8.648;2024-01-30T02:13:48;31.85;;;19.70;;
19004;SDS011;9635;52.078;8.648;2024-01-30T02:18:51;28.52;;;18.13;;
19004;SDS011;9635;52.078;8.648;2024-01-30T02:23:56;31.27;;;18.90;;
19004;SDS011;9635;52.078;8.648;2024-01-30T02:29:01;29.83;;;18.00;;
19004;SDS011;9635;52.078;8.648;2024-01-30T02:34:04;27.42;;;18.45;;
19004;SDS011;9635;52.078;8.648;2024-01-30T02:39:08;25.98;;;17.85;;
19004;SDS011;9635;52.078;8.648;2024-01-30T02:44:11;36.95;;;19.10;;
19004;SDS011;9635;52.078;8.648;2024-01-30T02:49:14;28.30;;;17.08;;
19004;SDS011;9635;52.078;8.648;2024-01-30T02:54:19;28.83;;;17.58;;
19004;SDS011;9635;52.078;8.648;2024-01-30T02:59:22;31.95;;;17.33;;
19004;SDS011;9635;52.078;8.648;2024-01-30T03:04:25;33.40;;;18.77;;
19004;SDS011;9635;52.078;8.648;2024-01-30T03:09:29;29.75;;;19.15;;
19004;SDS011;9635;52.078;8.648;2024-01-30T03:14:32;31.63;;;18.77;;
19004;SDS011;9635;52.078;8.648;2024-01-30T03:19:35;31.40;;;19.70;;
19004;SDS011;9635;52.078;8.648;2024-01-30T03:24:40;29.42;;;18.52;;
19004;SDS011;9635;52.078;8.648;2024-01-30T03:29:43;31.90;;;19.23;;
19004;SDS011;9635;52.078;8.648;2024-01-30T03:34:46;39.28;;;18.35;;
19004;SDS011;9635;52.078;8.648;2024-01-30T03:39:50;31.50;;;19.10;;
19004;SDS011;9635;52.078;8.648;2024-01-30T03:44:54;28.98;;;18.00;;
19004;SDS011;9635;52.078;8.648;2024-01-30T03:49:56;30.50;;;18.30;;
19004;SDS011;9635;52.078;8.648;2024-01-30T03:55:01;32.53;;;19.52;;
19004;SDS011;9635;52.078;8.648;2024-01-30T04:00:05;29.75;;;18.58;;
19004;SDS011;9635;52.078;8.648;2024-01-30T04:05:14;30.25;;;19.20;;
19004;SDS011;9635;52.078;8.648;2024-01-30T04:10:19;30.02;;;18.38;;
19004;SDS011;9635;52.078;8.648;2024-01-30T04:15:22;33.58;;;19.10;;
19004;SDS011;9635;52.078;8.648;2024-01-30T04:20:25;34.05;;;19.08;;
19004;SDS011;9635;52.078;8.648;2024-01-30T04:25:30;29.85;;;19.25;;
19004;SDS011;9635;52.078;8.648;2024-01-30T04:30:33;35.95;;;19.92;;
19004;SDS011;9635;52.078;8.648;2024-01-30T04:35:36;38.42;;;19.73;;
19004;SDS011;9635;52.078;8.648;2024-01-30T04:40:40;36.53;;;19.58;;
19004;SDS011;9635;52.078;8.648;2024-01-30T04:45:43;33.17;;;19.88;;
19004;SDS011;9635;52.078;8.648;2024-01-30T04:50:46;29.75;;;20.77;;
19004;SDS011;9635;52.078;8.648;2024-01-30T04:55:51;35.88;;;20.85;;
19004;SDS011;9635;52.078;8.648;2024-01-30T05:00:54;32.45;;;20.80;;
19004;SDS011;9635;52.078;8.648;2024-01-30T05:05:59;31.88;;;20.08;;
19004;SDS011;9635;52.078;8.648;2024-01-30T05:11:04;34.20;;;21.30;;
19004;SDS011;9635;52.078;8.648;2024-01-30T05:16:07;38.53;;;20.20;;
19004;SDS011;9635;52.078;8.648;2024-01-30T05:21:10;31.65;;;19.70;;
19004;SDS011;9635;52.078;8.648;2024-01-30T05:26:15;31.35;;;20.00;;
19004;SDS011;9635;52.078;8.648;2024-01-30T05:31:18;34.70;;;20.00;;
19004;SDS011;9635;52.078;8.648;2024-01-30T05:36:22;31.20;;;19.00;;
19004;SDS011;9635;52.078;8.648;2024-01-30T05:41:27;29.17;;;18.88;;
19004;SDS011;9635;52.078;8.648;2024-01-30T05:46:30;28.42;;;18.40;;
19004;SDS011;9635;52.078;8.648;2024-01-30T05:51:33;29.13;;;18.17;;
19004;SDS011;9635;52.078;8.648;2024-01-30T05:56:37;30.48;;;19.60;;
19004;SDS011;9635;52.078;8.648;2024-01-30T06:01:45;31.00;;;18.67;;
19004;SDS011;9635;52.078;8.648;2024-01-30T06:06:48;32.17;;;18.60;;
19004;SDS011;9635;52.078;8.648;2024-01-30T06:11:53;32.22;;;18.83;;
19004;SDS011;9635;52.078;8.648;2024-01-30T06:16:56;34.50;;;19.55;;
19004;SDS011;9635;52.078;8.648;2024-01-30T06:21:59;31.95;;;17.92;;
19004;SDS011;9635;52.078;8.648;2024-01-30T06:27:04;29.25;;;17.17;;
19004;SDS011;9635;52.078;8.648;2024-01-30T06:32:07;28.70;;;17.95;;
19004;SDS011;9635;52.078;8.648;2024-01-30T06:37:10;31.30;;;19.15;;
19004;SDS011;9635;52.078;8.648;2024-01-30T06:42:14;34.60;;;19.17;;
19004;SDS011;9635;52.078;8.648;2024-01-30T06:47:17;32.10;;;19.20;;
19004;SDS011;9635;52.078;8.648;2024-01-30T06:52:21;29.73;;;18.48;;
19004;SDS011;9635;52.078;8.648;2024-01-30T06:57:25;33.00;;;17.85;;
19004;SDS011;9635;52.078;8.648;2024-01-30T07:02:29;34.40;;;18.98;;
19004;SDS011;9635;52.078;8.648;2024-01-30T07:07:32;30.08;;;17.90;;
19004;SDS011;9635;52.078;8.648;2024-01-30T07:12:37;30.33;;;17.27;;
19004;SDS011;9635;52.078;8.648;2024-01-30T07:17:40;25.73;;;16.35;;
19004;SDS011;9635;52.078;8.648;2024-01-30T07:22:43;26.58;;;16.52;;
19004;SDS011;9635;52.078;8.648;2024-01-30T07:27:47;25.50;;;14.75;;
19004;SDS011;9635;52.078;8.648;2024-01-30T07:32:50;27.10;;;16.00;;
19004;SDS011;9635;52.078;8.648;2024-01-30T07:37:53;25.42;;;15.85;;
19004;SDS011;9635;52.078;8.648;2024-01-30T07:42:59;27.52;;;16.65;;
19004;SDS011;9635;52.078;8.648;2024-01-30T07:48:03;28.20;;;16.27;;
19004;SDS011;9635;52.078;8.648;2024-01-30T07:53:06;24.75;;;15.80;;
19004;SDS011;9635;52.078;8.648;2024-01-30T07:58:10;27.55;;;15.98;;
19004;SDS011;9635;52.078;8.648;2024-01-30T08:03:14;25.25;;;16.10;;
19004;SDS011;9635;52.078;8.648;2024-01-30T08:08:17;26.88;;;16.58;;
19004;SDS011;9635;52.078;8.648;2024-01-30T08:13:22;28.33;;;16.40;;
19004;SDS011;9635;52.078;8.648;2024-01-30T08:18:25;23.42;;;16.38;;
19004;SDS011;9635;52.078;8.648;2024-01-30T08:23:29;26.42;;;16.42;;
19004;SDS011;9635;52.078;8.648;2024-01-30T08:28:33;30.00;;;18.42;;
19004;SDS011;9635;52.078;8.648;2024-01-30T08:33:36;27.60;;;16.60;;
19004;SDS011;9635;52.078;8.648;2024-01-30T08:38:42;26.30;;;15.60;;
19004;SDS011;9635;52.078;8.648;2024-01-30T08:43:46;27.48;;;16.08;;
19004;SDS011;9635;52.078;8.648;2024-01-30T08:48:49;26.95;;;16.90;;
19004;SDS011;9635;52.078;8.648;2024-01-30T08:53:52;27.63;;;16.40;;
19004;SDS011;9635;52.078;8.648;2024-01-30T08:58:57;28.98;;;17.45;;
19004;SDS011;9635;52.078;8.648;2024-01-30T09:04:00;26.90;;;16.30;;
19004;SDS011;9635;52.078;8.648;2024-01-30T09:09:03;25.60;;;16.48;;
19004;SDS011;9635;52.078;8.648;2024-01-30T09:14:07;24.45;;;16.60;;
19004;SDS011;9635;52.078;8.648;2024-01-30T09:19:10;24.02;;;15.95;;
19004;SDS011;9635;52.078;8.648;2024-01-30T09:24:13;23.88;;;15.27;;
19004;SDS011;9635;52.078;8.648;2024-01-30T09:29:18;26.55;;;15.95;;
19004;SDS011;9635;52.078;8.648;2024-01-30T09:34:21;23.85;;;15.60;;
19004;SDS011;9635;52.078;8.648;2024-01-30T09:39:24;26.55;;;16.63;;
19004;SDS011;9635;52.078;8.648;2024-01-30T09:44:29;22.75;;;14.90;;
19004;SDS011;9635;52.078;8.648;2024-01-30T09:49:32;24.05;;;14.75;;
19004;SDS011;9635;52.078;8.648;2024-01-30T09:54:37;24.13;;;14.98;;
19004;SDS011;9635;52.078;8.648;2024-01-30T09:59:43;23.70;;;14.82;;
19004;SDS011;9635;52.078;8.648;2024-01-30T10:04:47;16.45;;;11.05;;
19004;SDS011;9635;52.078;8.648;2024-01-30T10:09:50;9.73;;;7.55;;
19004;SDS011;9635;52.078;8.648;2024-01-30T10:14:57;10.98;;;6.82;;
19004;SDS011;9635;52.078;8.648;2024-01-30T10:20:03;10.00;;;5.50;;
19004;SDS011;9635;52.078;8.648;2024-01-30T10:25:07;11.93;;;6.55;;
19004;SDS011;9635;52.078;8.648;2024-01-30T10:30:13;11.75;;;6.10;;
19004;SDS011;9635;52.078;8.648;2024-01-30T10:35:17;11.18;;;5.88;;
19004;SDS011;9635;52.078;8.648;2024-01-30T10:40:20;9.23;;;5.30;;
19004;SDS011;9635;52.078;8.648;2024-01-30T10:45:29;10.88;;;5.95;;
19004;SDS011;9635;52.078;8.648;2024-01-30T10:50:33;9.98;;;5.53;;
19004;SDS011;9635;52.078;8.648;2024-01-30T10:55:51;7.03;;;5.15;;
19004;SDS011;9635;52.078;8.648;2024-01-30T11:00:58;7.30;;;4.88;;
19004;SDS011;9635;52.078;8.648;2024-01-30T11:06:02;7.68;;;4.80;;
19004;SDS011;9635;52.078;8.648;2024-01-30T11:11:08;8.02;;;4.65;;
19004;SDS011;9635;52.078;8.648;2024-01-30T11:16:16;7.70;;;4.70;;
19004;SDS011;9635;52.078;8.648;2024-01-30T11:21:19;9.15;;;5.03;;
19004;SDS011;9635;52.078;8.648;2024-01-30T11:26:24;6.55;;;4.68;;
19004;SDS011;9635;52.078;8.648;2024-01-30T11:31:33;7.95;;;4.63;;
19004;SDS011;9635;52.078;8.648;2024-01-30T11:36:36;10.27;;;5.45;;
19004;SDS011;9635;52.078;8.648;2024-01-30T11:41:40;10.43;;;4.88;;
19004;SDS011;9635;52.078;8.648;2024-01-30T11:46:45;8.98;;;5.60;;
19004;SDS011;9635;52.078;8.648;2024-01-30T11:51:49;7.95;;;4.90;;
19004;SDS011;9635;52.078;8.648;2024-01-30T11:56:55;7.53;;;5.32;;
19004;SDS011;9635;52.078;8.648;2024-01-30T12:01:59;8.80;;;5.97;;
19004;SDS011;9635;52.078;8.648;2024-01-30T12:07:03;9.18;;;6.68;;
19004;SDS011;9635;52.078;8.648;2024-01-30T12:12:07;10.77;;;6.15;;
19004;SDS011;9635;52.078;8.648;2024-01-30T12:17:23;9.25;;;6.15;;
19004;SDS011;9635;52.078;8.648;2024-01-30T12:22:27;11.32;;;6.10;;
19004;SDS011;9635;52.078;8.648;2024-01-30T12:27:30;9.05;;;6.22;;
19004;SDS011;9635;52.078;8.648;2024-01-30T12:32:35;11.05;;;5.55;;
19004;SDS011;9635;52.078;8.648;2024-01-30T12:37:39;14.75;;;6.85;;
19004;SDS011;9635;52.078;8.648;2024-01-30T12:42:42;11.32;;;5.88;;
19004;SDS011;9635;52.078;8.648;2024-01-30T12:47:49;11.48;;;6.80;;
19004;SDS011;9635;52.078;8.648;2024-01-30T12:52:52;17.05;;;7.25;;
19004;SDS011;9635;52.078;8.648;2024-01-30T12:57:56;12.25;;;7.47;;
19004;SDS011;9635;52.078;8.648;2024-01-30T13:03:00;13.50;;;7.68;;
19004;SDS011;9635;52.078;8.648;2024-01-30T13:08:04;10.40;;;6.75;;
19004;SDS011;9635;52.078;8.648;2024-01-30T13:13:08;17.50;;;7.68;;
19004;SDS011;9635;52.078;8.648;2024-01-30T13:18:22;10.10;;;6.35;;
19004;SDS011;9635;52.078;8.648;2024-01-30T13:23:25;13.55;;;7.15;;
19004;SDS011;9635;52.078;8.648;2024-01-30T13:28:28;13.65;;;7.38;;
19004;SDS011;9635;52.078;8.648;2024-01-30T13:33:32;16.77;;;8.52;;
19004;SDS011;9635;52.078;8.648;2024-01-30T13:38:35;13.43;;;6.90;;
19004;SDS011;9635;52.078;8.648;2024-01-30T13:43:38;16.48;;;7.78;;
19004;SDS011;9635;52.078;8.648;2024-01-30T13:48:43;13.60;;;8.07;;
19004;SDS011;9635;52.078;8.648;2024-01-30T13:53:46;12.55;;;8.75;;
19004;SDS011;9635;52.078;8.648;2024-01-30T13:58:49;21.05;;;8.25;;
19004;SDS011;9635;52.078;8.648;2024-01-30T14:03:53;15.88;;;8.60;;
19004;SDS011;9635;52.078;8.648;2024-01-30T14:08:56;11.82;;;8.10;;
19004;SDS011;9635;52.078;8.648;2024-01-30T14:14:08;18.67;;;9.40;;
19004;SDS011;9635;52.078;8.648;2024-01-30T14:19:13;18.42;;;9.13;;
19004;SDS011;9635;52.078;8.648;2024-01-30T14:24:16;14.65;;;6.47;;
19004;SDS011;9635;52.078;8.648;2024-01-30T14:29:19;15.52;;;6.70;;
19004;SDS011;9635;52.078;8.648;2024-01-30T14:34:23;13.15;;;6.05;;
19004;SDS011;9635;52.078;8.648;2024-01-30T14:39:26;19.58;;;9.30;;
19004;SDS011;9635;52.078;8.648;2024-01-30T14:44:29;15.13;;;9.90;;
19004;SDS011;9635;52.078;8.648;2024-01-30T14:49:34;20.50;;;10.38;;
19004;SDS011;9635;52.078;8.648;2024-01-30T14:54:37;13.85;;;8.70;;
19004;SDS011;9635;52.078;8.648;2024-01-30T14:59:40;16.15;;;8.18;;
19004;SDS011;9635;52.078;8.648;2024-01-30T15:04:45;15.63;;;8.02;;
19004;SDS011;9635;52.078;8.648;2024-01-30T15:09:48;18.85;;;7.65;;
19004;SDS011;9635;52.078;8.648;2024-01-30T15:14:51;17.63;;;9.43;;
19004;SDS011;9635;52.078;8.648;2024-01-30T15:19:55;11.00;;;7.65;;
19004;SDS011;9635;52.078;8.648;2024-01-30T15:25:00;11.98;;;8.77;;
19004;SDS011;9635;52.078;8.648;2024-01-30T15:30:05;15.73;;;10.35;;
19004;SDS011;9635;52.078;8.648;2024-01-30T15:35:10;22.58;;;11.10;;
19004;SDS011;9635;52.078;8.648;2024-01-30T15:40:14;18.80;;;10.80;;
19004;SDS011;9635;52.078;8.648;2024-01-30T15:45:17;16.58;;;11.70;;
19004;SDS011;9635;52.078;8.648;2024-01-30T15:50:22;13.38;;;7.90;;
19004;SDS011;9635;52.078;8.648;2024-01-30T15:55:26;15.75;;;10.05;;
19004;SDS011;9635;52.078;8.648;2024-01-30T16:00:29;16.48;;;11.02;;
19004;SDS011;9635;52.078;8.648;2024-01-30T16:05:34;13.98;;;8.82;;
19004;SDS011;9635;52.078;8.648;2024-01-30T16:10:38;12.85;;;9.07;;
19004;SDS011;9635;52.078;8.648;2024-01-30T16:15:41;21.42;;;8.95;;
19004;SDS011;9635;52.078;8.648;2024-01-30T16:20:47;15.32;;;9.73;;
19004;SDS011;9635;52.078;8.648;2024-01-30T16:25:51;15.75;;;9.23;;
19004;SDS011;9635;52.078;8.648;2024-01-30T16:30:54;15.45;;;8.52;;
19004;SDS011;9635;52.078;8.648;2024-01-30T16:36:01;18.90;;;10.10;;
19004;SDS011;9635;52.078;8.648;2024-01-30T16:41:05;18.13;;;10.82;;
19004;SDS011;9635;52.078;8.648;2024-01-30T16:46:08;17.90;;;10.73;;
19004;SDS011;9635;52.078;8.648;2024-01-30T16:51:13;18.60;;;9.40;;
19004;SDS011;9635;52.078;8.648;2024-01-30T16:56:16;17.60;;;10.63;;
19004;SDS011;9635;52.078;8.648;2024-01-30T17:01:21;17.65;;;10.82;;
19004;SDS011;9635;52.078;8.648;2024-01-30T17:06:25;17.52;;;10.80;;
19004;SDS011;9635;52.078;8.648;2024-01-30T17:11:28;17.13;;;10.45;;
19004;SDS011;9635;52.078;8.648;2024-01-30T17:16:31;13.90;;;7.75;;
19004;SDS011;9635;52.078;8.648;2024-01-30T17:21:36;8.23;;;5.95;;
19004;SDS011;9635;52.078;8.648;2024-01-30T17:26:39;12.98;;;5.80;;
19004;SDS011;9635;52.078;8.648;2024-01-30T17:31:46;11.13;;;5.18;;
19004;SDS011;9635;52.078;8.648;2024-01-30T17:36:51;7.22;;;3.45;;
19004;SDS011;9635;52.078;8.648;2024-01-30T17:41:54;6.95;;;3.88;;
19004;SDS011;9635;52.078;8.648;2024-01-30T17:46:57;4.82;;;2.60;;
19004;SDS011;9635;52.078;8.648;2024-01-30T17:52:02;6.85;;;3.30;;
19004;SDS011;9635;52.078;8.648;2024-01-30T17:57:05;4.20;;;2.53;;
19004;SDS011;9635;52.078;8.648;2024-01-30T18:02:08;5.82;;;2.92;;
19004;SDS011;9635;52.078;8.648;2024-01-30T18:07:14;7.05;;;2.90;;
19004;SDS011;9635;52.078;8.648;2024-01-30T18:12:17;6.32;;;2.50;;
19004;SDS011;9635;52.078;8.648;2024-01-30T18:17:20;3.33;;;2.75;;
19004;SDS011;9635;52.078;8.648;2024-01-30T18:22:25;7.72;;;2.72;;
19004;SDS011;9635;52.078;8.648;2024-01-30T18:27:28;4.55;;;2.53;;
19004;SDS011;9635;52.078;8.648;2024-01-30T18:32:31;4.88;;;2.85;;
19004;SDS011;9635;52.078;8.648;2024-01-30T18:37:35;8.00;;;3.17;;
19004;SDS011;9635;52.078;8.648;2024-01-30T18:42:38;3.67;;;2.90;;
19004;SDS011;9635;52.078;8.648;2024-01-30T18:47:41;4.68;;;3.35;;
19004;SDS011;9635;52.078;8.648;2024-01-30T18:52:46;5.78;;;3.40;;
19004;SDS011;9635;52.078;8.648;2024-01-30T18:57:49;5.57;;;3.00;;
19004;SDS011;9635;52.078;8.648;2024-01-30T19:02:52;5.22;;;3.33;;
19004;SDS011;9635;52.078;8.648;2024-01-30T19:07:56;4.90;;;2.85;;
19004;SDS011;9635;52.078;8.648;2024-01-30T19:12:59;6.72;;;4.05;;
19004;SDS011;9635;52.078;8.648;2024-01-30T19:18:02;4.18;;;3.22;;
19004;SDS011;9635;52.078;8.648;2024-01-30T19:23:09;7.63;;;4.65;;
19004;SDS011;9635;52.078;8.648;2024-01-30T19:28:18;7.50;;;4.75;;
19004;SDS011;9635;52.078;8.648;2024-01-30T19:33:21;13.30;;;4.07;;
19004;SDS011;9635;52.078;8.648;2024-01-30T19:38:26;8.40;;;4.60;;
19004;SDS011;9635;52.078;8.648;2024-01-30T19:43:29;4.72;;;2.13;;
19004;SDS011;9635;52.078;8.648;2024-01-30T19:48:32;5.95;;;3.22;;
19004;SDS011;9635;52.078;8.648;2024-01-30T19:53:37;5.97;;;4.40;;
19004;SDS011;9635;52.078;8.648;2024-01-30T19:58:40;6.97;;;4.50;;
19004;SDS011;9635;52.078;8.648;2024-01-30T20:03:44;8.02;;;5.32;;
19004;SDS011;9635;52.078;8.648;2024-01-30T20:08:49;8.90;;;4.70;;
19004;SDS011;9635;52.078;8.648;2024-01-30T20:13:52;5.90;;;3.88;;
19004;SDS011;9635;52.078;8.648;2024-01-30T20:18:56;8.02;;;5.50;;
19004;SDS011;9635;52.078;8.648;2024-01-30T20:24:03;8.93;;;5.25;;
19004;SDS011;9635;52.078;8.648;2024-01-30T20:29:07;11.18;;;6.43;;
19004;SDS011;9635;52.078;8.648;2024-01-30T20:34:11;12.43;;;6.65;;
19004;SDS011;9635;52.078;8.648;2024-01-30T20:39:17;11.52;;;7.30;;
19004;SDS011;9635;52.078;8.648;2024-01-30T20:44:21;13.07;;;7.53;;
19004;SDS011;9635;52.078;8.648;2024-01-30T20:49:25;8.80;;;5.70;;
19004;SDS011;9635;52.078;8.648;2024-01-30T20:54:30;10.98;;;6.72;;
19004;SDS011;9635;52.078;8.648;2024-01-30T20:59:36;11.48;;;7.18;;
19004;SDS011;9635;52.078;8.648;2024-01-30T21:04:40;10.80;;;6.45;;
19004;SDS011;9635;52.078;8.648;2024-01-30T21:09:45;12.85;;;7.72;;
19004;SDS011;9635;52.078;8.648;2024-01-30T21:14:51;9.55;;;5.28;;
19004;SDS011;9635;52.078;8.648;2024-01-30T21:19:55;10.18;;;5.68;;
19004;SDS011;9635;52.078;8.648;2024-01-30T21:25:01;14.80;;;9.30;;
19004;SDS011;9635;52.078;8.648;2024-01-30T21:30:05;13.82;;;7.22;;
19004;SDS011;9635;52.078;8.648;2024-01-30T21:35:09;10.15;;;5.55;;
19004;SDS011;9635;52.078;8.648;2024-01-30T21:40:16;12.45;;;5.53;;
19004;SDS011;9635;52.078;8.648;2024-01-30T21:45:19;15.85;;;9.20;;
19004;SDS011;9635;52.078;8.648;2024-01-30T21:50:24;13.68;;;7.43;;
19004;SDS011;9635;52.078;8.648;2024-01-30T21:55:29;15.05;;;7.55;;
19004;SDS011;9635;52.078;8.648;2024-01-30T22:00:32;17.13;;;8.63;;
19004;SDS011;9635;52.078;8.648;2024-01-30T22:05:37;18.92;;;10.73;;
19004;SDS011;9635;52.078;8.648;2024-01-30T22:10:46;18.75;;;9.43;;
19004;SDS011;9635;52.078;8.648;2024-01-30T22:15:50;21.77;;;11.23;;
19004;SDS011;9635;52.078;8.648;2024-01-30T22:20:53;19.48;;;10.40;;
19004;SDS011;9635;52.078;8.648;2024-01-30T22:25:58;22.90;;;10.45;;
19004;SDS011;9635;52.078;8.648;2024-01-30T22:31:01;17.90;;;9.77;;
19004;SDS011;9635;52.078;8.648;2024-01-30T22:36:05;19.92;;;10.45;;
19004;SDS011;9635;52.078;8.648;2024-01-30T22:41:11;13.13;;;7.20;;
19004;SDS011;9635;52.078;8.648;2024-01-30T22:46:14;10.90;;;6.63;;
19004;SDS011;9635;52.078;8.648;2024-01-30T22:51:21;11.27;;;5.50;;
19004;SDS011;9635;52.078;8.648;2024-01-30T22:56:25;8.65;;;5.00;;
19004;SDS011;9635;52.078;8.648;2024-01-30T23:01:29;6.80;;;3.28;;
19004;SDS011;9635;52.078;8.648;2024-01-30T23:06:32;6.70;;;3.45;;
19004;SDS011;9635;52.078;8.648;2024-01-30T23:11:36;5.78;;;2.88;;
19004;SDS011;9635;52.078;8.648;2024-01-30T23:16:39;6.28;;;2.78;;
19004;SDS011;9635;52.078;8.648;2024-01-30T23:21:42;6.07;;;3.40;;
19004;SDS011;9635;52.078;8.648;2024-01-30T23:26:47;5.80;;;3.58;;
19004;SDS011;9635;52.078;8.648;2024-01-30T23:31:50;3.58;;;2.75;;
19004;SDS011;9635;52.078;8.648;2024-01-30T23:36:53;8.35;;;3.40;;
19004;SDS011;9635;52.078;8.648;2024-01-30T23:41:57;3.47;;;2.40;;
19004;SDS011;9635;52.078;8.648;2024-01-30T23:47:00;5.10;;;2.55;;
19004;SDS011;9635;52.078;8.648;2024-01-30T23:52:06;6.32;;;2.90;;
19004;SDS011;9635;52.078;8.648;2024-01-30T23:57:10;7.07;;;3.00;;
